createdAt,value
2022-08-11T00:00:53.781Z,16.28
2022-08-11T00:05:57.827Z,16.34
2022-08-11T00:11:07.396Z,16.43
2022-08-11T00:16:25.103Z,16.46
2022-08-11T00:22:01.863Z,16.46
2022-08-11T00:26:55.499Z,16.45
2022-08-11T00:32:03.192Z,16.38
2022-08-11T00:37:18.873Z,16.33
2022-08-11T00:42:55.701Z,16.32
2022-08-11T00:48:25.094Z,16.32
2022-08-11T00:53:44.103Z,16.27
2022-08-11T00:59:42.621Z,16.24
2022-08-11T01:05:08.313Z,16.08
2022-08-11T01:11:06.509Z,15.71
2022-08-11T01:16:45.684Z,15.36
2022-08-11T01:22:04.058Z,14.81
2022-08-11T01:27:32.865Z,14.81
2022-08-11T01:32:55.624Z,14.88
2022-08-11T01:38:18.695Z,14.93
2022-08-11T01:43:55.880Z,14.88
2022-08-11T01:49:29.076Z,14.80
2022-08-11T01:55:26.975Z,14.70
2022-08-11T02:00:40.551Z,14.59
2022-08-11T02:06:33.715Z,14.52
2022-08-11T02:11:39.242Z,14.39
2022-08-11T02:17:18.436Z,14.33
2022-08-11T02:24:04.225Z,14.26
2022-08-11T02:28:58.464Z,14.19
2022-08-11T02:34:28.693Z,14.14
2022-08-11T02:39:56.261Z,14.06
2022-08-11T02:45:27.226Z,13.96
2022-08-11T02:50:56.646Z,13.72
2022-08-11T02:56:44.843Z,13.52
2022-08-11T03:02:24.985Z,13.56
2022-08-11T03:07:40.494Z,13.55
2022-08-11T03:13:34.385Z,13.61
2022-08-11T03:18:59.822Z,13.64
2022-08-11T03:24:19.504Z,13.70
2022-08-11T03:29:48.140Z,13.76
2022-08-11T03:34:55.136Z,13.65
2022-08-11T03:40:07.749Z,13.34
2022-08-11T03:45:42.485Z,13.55
2022-08-11T03:50:58.690Z,13.76
2022-08-11T03:56:11.753Z,13.86
2022-08-11T04:01:46.264Z,13.77
2022-08-11T04:07:20.407Z,13.72
2022-08-11T04:12:49.058Z,13.94
2022-08-11T04:18:29.490Z,14.14
2022-08-11T04:24:35.747Z,14.34
2022-08-11T04:30:03.592Z,14.58
2022-08-11T04:35:48.658Z,14.73
2022-08-11T04:41:33.441Z,14.89
2022-08-11T04:48:01.742Z,15.09
2022-08-11T04:53:38.773Z,15.36
2022-08-11T04:59:00.586Z,15.57
2022-08-11T05:04:40.764Z,15.92
2022-08-11T05:10:16.330Z,16.27
2022-08-11T05:16:19.037Z,16.48
2022-08-11T05:21:45.276Z,16.73
2022-08-11T05:27:13.591Z,16.93
2022-08-11T05:32:37.561Z,16.95
2022-08-11T05:38:06.277Z,16.98
2022-08-11T05:43:33.039Z,17.12
2022-08-11T05:48:56.319Z,17.10
2022-08-11T05:54:29.045Z,17.32
2022-08-11T05:59:34.527Z,17.57
2022-08-11T06:04:38.746Z,17.71
2022-08-11T06:09:44.897Z,17.85
2022-08-11T06:14:54.977Z,17.99
2022-08-11T06:20:07.021Z,18.13
2022-08-11T06:25:12.561Z,18.35
2022-08-11T06:30:16.263Z,18.52
2022-08-11T06:35:37.969Z,18.68
2022-08-11T06:41:15.624Z,18.94
2022-08-11T06:46:31.643Z,19.07
2022-08-11T06:51:38.643Z,19.23
2022-08-11T06:57:28.971Z,19.58
2022-08-11T07:02:50.168Z,19.79
2022-08-11T07:08:34.444Z,19.98
2022-08-11T07:13:59.565Z,20.23
2022-08-11T07:19:26.527Z,20.43
2022-08-11T07:25:02.490Z,20.65
2022-08-11T07:30:10.836Z,20.94
2022-08-11T07:35:20.953Z,21.09
2022-08-11T07:40:25.958Z,21.25
2022-08-11T07:45:49.368Z,21.41
2022-08-11T07:51:13.744Z,21.65
2022-08-11T07:56:21.828Z,21.91
2022-08-11T08:01:57.278Z,22.04
2022-08-11T08:07:23.401Z,22.22
2022-08-11T08:12:46.769Z,22.45
2022-08-11T08:18:09.506Z,22.67
2022-08-11T08:23:33.653Z,22.90
2022-08-11T08:28:37.856Z,23.08
2022-08-11T08:33:43.036Z,23.22
2022-08-11T08:38:54.357Z,23.42
2022-08-11T08:44:27.809Z,23.52
2022-08-11T08:49:50.942Z,23.85
2022-08-11T08:55:01.477Z,24.08
2022-08-11T09:00:08.911Z,24.13
2022-08-11T09:05:19.886Z,24.27
2022-08-11T09:10:23.951Z,24.73
2022-08-11T09:15:28.575Z,25.04
2022-08-11T09:20:35.441Z,25.47
2022-08-11T09:25:57.287Z,25.48
2022-08-11T09:31:02.889Z,24.95
2022-08-11T09:36:27.056Z,25.04
2022-08-11T09:42:01.249Z,24.74
2022-08-11T09:46:59.699Z,24.43
2022-08-11T09:52:09.857Z,24.28
2022-08-11T09:57:32.317Z,24.60
2022-08-11T10:02:46.387Z,24.88
2022-08-11T10:07:53.724Z,25.27
2022-08-11T10:13:04.568Z,25.02
2022-08-11T10:18:35.017Z,25.34
2022-08-11T10:24:00.319Z,25.78
2022-08-11T10:29:33.438Z,26.04
2022-08-11T10:34:54.477Z,26.54
2022-08-11T10:40:02.186Z,26.72
2022-08-11T10:45:27.206Z,26.19
2022-08-11T10:50:50.588Z,25.87
2022-08-11T10:56:13.767Z,25.53
2022-08-11T11:01:16.918Z,25.37
2022-08-11T11:06:51.223Z,25.63
2022-08-11T11:12:40.232Z,25.83
2022-08-11T11:18:02.159Z,25.95
2022-08-11T11:23:11.609Z,26.13
2022-08-11T11:29:10.628Z,26.65
2022-08-11T11:34:52.808Z,27.37
2022-08-11T11:39:58.624Z,28.07
2022-08-11T11:45:04.635Z,28.13
2022-08-11T11:50:09.528Z,28.01
2022-08-11T11:55:13.216Z,27.79
2022-08-11T12:00:38.259Z,27.17
2022-08-11T12:05:45.272Z,26.88
2022-08-11T12:11:12.960Z,26.98
2022-08-11T12:16:33.684Z,27.89
2022-08-11T12:23:27.789Z,28.74
2022-08-11T12:28:33.528Z,28.64
2022-08-11T12:33:41.270Z,29.03
2022-08-11T12:38:51.862Z,29.48
2022-08-11T12:44:24.771Z,29.45
2022-08-11T12:49:54.275Z,29.77
2022-08-11T12:55:12.538Z,30.04
2022-08-11T13:00:37.151Z,30.17
2022-08-11T13:05:45.156Z,30.15
2022-08-11T13:11:11.208Z,30.33
2022-08-11T13:16:15.447Z,30.40
2022-08-11T13:21:20.539Z,30.89
2022-08-11T13:26:36.941Z,31.69
2022-08-11T13:31:50.138Z,32.56
2022-08-11T13:36:58.217Z,32.95
2022-08-11T13:42:03.868Z,31.67
2022-08-11T13:47:10.393Z,30.98
2022-08-11T13:52:17.043Z,30.93
2022-08-11T13:58:19.331Z,30.91
2022-08-11T14:02:50.847Z,30.96
2022-08-11T14:08:02.101Z,31.12
2022-08-11T14:13:42.290Z,31.00
2022-08-11T14:18:54.611Z,31.51
2022-08-11T14:24:01.259Z,31.47
2022-08-11T14:29:21.157Z,32.08
2022-08-11T14:34:30.002Z,31.93
2022-08-11T14:39:38.611Z,31.52
2022-08-11T14:45:15.531Z,31.51
2022-08-11T14:50:27.136Z,31.38
2022-08-11T14:55:55.132Z,31.47
2022-08-11T15:01:32.845Z,31.28
2022-08-11T15:06:37.496Z,31.29
2022-08-11T15:12:00.970Z,30.58
2022-08-11T15:17:12.065Z,30.28
2022-08-11T15:22:34.321Z,30.63
2022-08-11T15:27:59.438Z,30.63
2022-08-11T15:33:27.329Z,30.81
2022-08-11T15:38:36.435Z,30.98
2022-08-11T15:44:08.189Z,30.94
2022-08-11T15:50:13.196Z,31.33
2022-08-11T15:55:02.405Z,31.12
2022-08-11T16:00:26.553Z,30.76
2022-08-11T16:05:57.750Z,30.57
2022-08-11T16:11:03.925Z,30.28
2022-08-11T16:16:15.343Z,30.24
2022-08-11T16:21:36.205Z,30.30
2022-08-11T16:27:10.384Z,29.81
2022-08-11T16:32:17.897Z,29.87
2022-08-11T16:37:42.197Z,29.80
2022-08-11T16:43:11.066Z,29.65
2022-08-11T16:48:35.263Z,29.86
2022-08-11T16:54:00.090Z,29.84
2022-08-11T16:59:18.401Z,29.58
2022-08-11T17:05:11.269Z,29.24
2022-08-11T17:10:56.489Z,28.92
2022-08-11T17:16:09.481Z,28.19
2022-08-11T17:22:01.547Z,27.73
2022-08-11T17:27:08.299Z,27.16
2022-08-11T17:32:56.030Z,26.83
2022-08-11T17:38:18.474Z,26.27
2022-08-11T17:43:40.418Z,25.66
2022-08-11T17:48:47.881Z,25.17
2022-08-11T17:54:24.360Z,24.91
2022-08-11T17:59:49.306Z,24.60
2022-08-11T18:04:55.033Z,24.46
2022-08-11T18:10:18.565Z,24.21
2022-08-11T18:15:50.062Z,24.00
2022-08-11T18:21:18.746Z,23.78
2022-08-11T18:26:44.398Z,23.65
2022-08-11T18:32:09.151Z,23.41
2022-08-11T18:37:38.107Z,23.28
2022-08-11T18:43:03.753Z,23.11
2022-08-11T18:48:40.247Z,22.84
2022-08-11T18:54:12.105Z,22.65
2022-08-11T18:59:41.455Z,22.42
2022-08-11T19:05:05.068Z,22.30
2022-08-11T19:10:28.736Z,22.22
2022-08-11T19:15:52.188Z,21.99
2022-08-11T19:21:15.978Z,21.84
2022-08-11T19:26:39.367Z,21.76
2022-08-11T19:32:03.573Z,21.64
2022-08-11T19:37:28.434Z,21.48
2022-08-11T19:42:51.801Z,21.40
2022-08-11T19:48:31.314Z,21.27
2022-08-11T19:53:55.733Z,21.13
2022-08-11T19:59:19.015Z,21.00
2022-08-11T20:04:41.775Z,20.96
2022-08-11T20:10:06.867Z,20.84
2022-08-11T20:15:30.992Z,20.64
2022-08-11T20:20:54.295Z,20.54
2022-08-11T20:26:34.836Z,20.47
2022-08-11T20:31:58.059Z,20.29
2022-08-11T20:37:23.101Z,20.27
2022-08-11T20:42:47.968Z,20.23
2022-08-11T20:55:01.591Z,19.88
2022-08-11T21:00:39.376Z,19.87
2022-08-11T21:06:10.581Z,19.98
2022-08-11T21:11:36.295Z,19.95
2022-08-11T21:17:04.493Z,19.92
2022-08-11T21:23:05.605Z,19.79
2022-08-11T21:28:30.977Z,19.78
2022-08-11T21:33:54.158Z,19.76
2022-08-11T21:39:16.994Z,19.71
2022-08-11T21:44:42.877Z,19.64
2022-08-11T21:50:06.459Z,19.53
2022-08-11T21:55:29.852Z,19.38
2022-08-11T22:00:53.211Z,19.25
2022-08-11T22:06:16.718Z,19.21
2022-08-11T22:11:40.099Z,19.15
2022-08-11T22:17:01.844Z,19.15
2022-08-11T22:22:26.246Z,19.21
2022-08-11T22:27:49.537Z,19.09
2022-08-11T22:33:12.717Z,19.03
2022-08-11T22:38:39.645Z,18.89
2022-08-11T22:44:01.838Z,18.80
2022-08-11T22:49:25.693Z,18.70
2022-08-11T22:54:49.376Z,18.65
2022-08-11T23:00:13.166Z,18.48
2022-08-11T23:05:37.884Z,18.31
2022-08-11T23:11:01.466Z,18.24
2022-08-11T23:16:24.027Z,18.21
2022-08-11T23:21:48.243Z,18.05
2022-08-11T23:27:10.900Z,17.98
2022-08-11T23:32:33.561Z,17.98
2022-08-11T23:37:56.228Z,17.82
2022-08-11T23:43:22.881Z,17.78
2022-08-11T23:48:50.058Z,17.80
2022-08-11T23:54:12.320Z,17.68
2022-08-11T23:59:36.201Z,17.59
